createdAt,value
2023-04-07T00:03:29.807Z,1021.16
2023-04-07T00:13:36.411Z,1021.15
2023-04-07T00:23:43.214Z,1021.15
2023-04-07T00:33:49.247Z,1021.11
2023-04-07T00:43:55.441Z,1021.07
2023-04-07T00:54:01.970Z,1021.01
2023-04-07T01:04:08.861Z,1020.84
2023-04-07T01:14:15.362Z,1020.78
2023-04-07T01:24:22.412Z,1020.73
2023-04-07T01:34:29.123Z,1020.65
2023-04-07T01:44:37.142Z,1020.65
2023-04-07T01:54:43.886Z,1020.65
2023-04-07T02:04:50.358Z,1020.55
2023-04-07T02:14:56.885Z,1020.51
2023-04-07T02:25:03.707Z,1020.45
2023-04-07T02:35:10.155Z,1020.45
2023-04-07T02:45:16.877Z,1020.36
2023-04-07T02:55:23.867Z,1020.37
2023-04-07T03:05:30.403Z,1020.33
2023-04-07T03:15:37.486Z,1020.29
2023-04-07T03:25:45.403Z,1020.24
2023-04-07T03:35:53.133Z,1020.17
2023-04-07T03:45:59.499Z,1020.10
2023-04-07T03:56:06.797Z,1020.02
2023-04-07T04:06:13.719Z,1020.10
2023-04-07T04:16:20.624Z,1020.09
2023-04-07T04:26:27.621Z,1020.12
2023-04-07T04:36:36.145Z,1020.15
2023-04-07T04:46:44.339Z,1020.09
2023-04-07T04:56:51.754Z,1020.18
2023-04-07T05:06:58.842Z,1020.25
2023-04-07T05:17:05.196Z,1020.29
2023-04-07T05:27:11.835Z,1020.19
2023-04-07T05:37:19.047Z,1020.17
2023-04-07T05:47:26.254Z,1020.20
2023-04-07T05:57:33.103Z,1020.13
2023-04-07T06:07:40.396Z,1020.28
2023-04-07T06:17:47.352Z,1020.30
2023-04-07T06:29:13.712Z,1020.45
2023-04-07T06:39:20.002Z,1020.42
2023-04-07T06:49:26.500Z,1020.46
2023-04-07T06:59:33.740Z,1020.54
2023-04-07T07:09:40.785Z,1020.55
2023-04-07T07:19:47.557Z,1020.54
2023-04-07T07:29:54.450Z,1020.64
2023-04-07T07:40:00.663Z,1020.65
2023-04-07T07:50:06.701Z,1020.66
2023-04-07T08:00:12.961Z,1020.70
2023-04-07T08:10:19.967Z,1020.82
2023-04-07T08:20:26.222Z,1020.77
2023-04-07T08:30:32.509Z,1020.75
2023-04-07T08:40:38.787Z,1020.81
2023-04-07T08:50:45.127Z,1020.88
2023-04-07T09:00:51.873Z,1020.97
2023-04-07T09:10:58.362Z,1021.01
2023-04-07T09:21:04.842Z,1021.03
2023-04-07T09:31:12.120Z,1021.06
2023-04-07T09:41:18.332Z,1021.15
2023-04-07T09:51:25.273Z,1021.08
2023-04-07T10:01:32.303Z,1021.11
2023-04-07T10:11:38.875Z,1021.16
2023-04-07T10:21:48.374Z,1021.10
2023-04-07T10:31:55.242Z,1021.07
2023-04-07T10:42:02.406Z,1021.14
2023-04-07T10:52:08.567Z,1021.09
2023-04-07T11:02:14.817Z,1021.03
2023-04-07T11:12:21.614Z,1021.02
2023-04-07T11:22:30.426Z,1021.00
2023-04-07T11:32:37.289Z,1021.01
2023-04-07T11:42:43.725Z,1020.99
2023-04-07T11:52:50.047Z,1020.95
2023-04-07T12:02:57.395Z,1020.91
2023-04-07T12:13:03.655Z,1020.99
2023-04-07T12:23:10.072Z,1020.99
2023-04-07T12:33:16.994Z,1020.98
2023-04-07T12:43:24.273Z,1020.99
2023-04-07T12:53:31.507Z,1020.90
2023-04-07T13:03:38.211Z,1020.88
2023-04-07T13:13:45.093Z,1020.84
2023-04-07T13:23:52.327Z,1020.84
2023-04-07T13:33:59.200Z,1020.88
2023-04-07T13:44:06.276Z,1020.89
2023-04-07T13:54:13.619Z,1020.83
2023-04-07T14:04:20.595Z,1020.72
2023-04-07T14:14:27.848Z,1020.67
2023-04-07T14:24:34.973Z,1020.60
2023-04-07T14:34:42.422Z,1020.58
2023-04-07T14:44:48.785Z,1020.53
2023-04-07T14:54:56.633Z,1020.64
2023-04-07T15:05:05.279Z,1020.65
2023-04-07T15:15:12.997Z,1020.64
2023-04-07T15:25:19.907Z,1020.68
2023-04-07T15:35:27.289Z,1020.65
2023-04-07T15:45:34.474Z,1020.62
2023-04-07T15:55:41.681Z,1020.62
2023-04-07T16:05:49.328Z,1020.63
2023-04-07T16:15:56.635Z,1020.69
2023-04-07T16:26:03.632Z,1020.70
2023-04-07T16:36:11.034Z,1020.71
2023-04-07T16:46:17.947Z,1020.69
2023-04-07T16:56:25.145Z,1020.72
2023-04-07T17:06:32.452Z,1020.70
2023-04-07T17:16:39.909Z,1020.87
2023-04-07T17:26:48.051Z,1020.89
2023-04-07T17:36:54.675Z,1020.99
2023-04-07T17:47:01.738Z,1021.08
2023-04-07T17:57:09.050Z,1021.11
2023-04-07T18:07:15.991Z,1021.19
2023-04-07T18:17:23.149Z,1021.25
2023-04-07T18:27:29.826Z,1021.30
2023-04-07T18:37:36.011Z,1021.38
2023-04-07T18:47:42.822Z,1021.55
2023-04-07T18:57:49.528Z,1021.65
2023-04-07T19:07:55.990Z,1021.73
2023-04-07T19:18:02.524Z,1021.77
2023-04-07T19:28:09.921Z,1021.85
2023-04-07T19:38:16.064Z,1021.83
2023-04-07T19:48:22.543Z,1021.78
2023-04-07T19:58:28.913Z,1021.69
2023-04-07T20:08:35.106Z,1021.76
2023-04-07T20:18:41.439Z,1021.78
2023-04-07T20:28:47.952Z,1021.76
2023-04-07T20:38:54.357Z,1021.76
2023-04-07T20:49:00.713Z,1021.77
2023-04-07T20:59:06.834Z,1021.79
2023-04-07T21:09:12.767Z,1021.88
2023-04-07T21:19:18.658Z,1021.83
2023-04-07T21:29:25.195Z,1021.86
2023-04-07T21:39:31.628Z,1021.90
2023-04-07T21:49:38.533Z,1021.87
2023-04-07T21:59:44.930Z,1021.78
2023-04-07T22:09:50.927Z,1021.81
2023-04-07T22:19:57.126Z,1021.88
2023-04-07T22:30:02.861Z,1021.76
2023-04-07T22:40:09.220Z,1021.76
2023-04-07T22:50:16.559Z,1021.82
2023-04-07T23:00:23.433Z,1021.80
2023-04-07T23:10:30.420Z,1022.02
2023-04-07T23:20:36.785Z,1021.85
2023-04-07T23:30:42.661Z,1021.80
2023-04-07T23:40:52.035Z,1021.82
2023-04-07T23:50:58.338Z,1021.84
